createdAt,value
2022-10-30T00:00:52.086Z,71.70
2022-10-30T00:06:20.212Z,71.90
2022-10-30T00:11:48.193Z,71.90
2022-10-30T00:17:17.115Z,71.80
2022-10-30T00:22:44.992Z,71.80
2022-10-30T00:28:12.989Z,71.70
2022-10-30T00:33:40.761Z,71.80
2022-10-30T00:39:08.632Z,71.70
2022-10-30T00:44:47.398Z,71.70
2022-10-30T00:50:22.243Z,71.80
2022-10-30T00:55:58.597Z,71.70
2022-10-30T01:01:28.970Z,71.80
2022-10-30T01:06:58.173Z,71.90
2022-10-30T01:12:26.087Z,71.90
2022-10-30T01:18:15.042Z,71.90
2022-10-30T01:23:59.813Z,71.90
2022-10-30T01:29:52.472Z,71.90
2022-10-30T01:35:48.156Z,71.90
2022-10-30T01:41:16.048Z,72.00
2022-10-30T01:47:07.661Z,72.10
2022-10-30T01:52:50.405Z,72.20
2022-10-30T01:58:59.142Z,72.40
2022-10-30T02:04:27.276Z,72.40
2022-10-30T02:09:56.120Z,72.40
2022-10-30T02:15:24.120Z,72.50
2022-10-30T02:20:52.205Z,72.70
2022-10-30T02:26:21.356Z,72.70
2022-10-30T02:31:49.720Z,72.80
2022-10-30T02:37:17.500Z,72.90
2022-10-30T02:42:45.312Z,72.90
2022-10-30T02:48:15.062Z,73.10
2022-10-30T02:53:43.000Z,73.20
2022-10-30T02:59:11.893Z,73.20
2022-10-30T03:04:39.823Z,73.40
2022-10-30T03:10:08.197Z,73.50
2022-10-30T03:15:37.746Z,73.60
2022-10-30T03:21:10.125Z,73.60
2022-10-30T03:26:38.229Z,73.90
2022-10-30T03:32:11.969Z,73.80
2022-10-30T03:37:51.598Z,73.90
2022-10-30T03:43:21.136Z,74.00
2022-10-30T03:48:50.554Z,74.10
2022-10-30T03:54:18.667Z,74.20
2022-10-30T03:59:46.704Z,74.30
2022-10-30T04:05:38.985Z,74.40
2022-10-30T04:11:07.043Z,74.50
2022-10-30T04:16:34.975Z,74.60
2022-10-30T04:22:03.781Z,74.70
2022-10-30T04:27:32.051Z,74.80
2022-10-30T04:33:00.718Z,74.90
2022-10-30T04:38:28.891Z,75.00
2022-10-30T04:43:57.695Z,75.10
2022-10-30T04:49:25.606Z,75.20
2022-10-30T04:54:53.463Z,75.20
2022-10-30T05:00:21.519Z,75.20
2022-10-30T05:05:58.466Z,75.40
2022-10-30T05:11:26.528Z,75.30
2022-10-30T05:16:54.894Z,75.40
2022-10-30T05:22:22.678Z,76.50
2022-10-30T05:27:50.536Z,76.50
2022-10-30T05:33:20.405Z,76.60
2022-10-30T05:38:49.487Z,76.70
2022-10-30T05:44:58.580Z,76.80
2022-10-30T05:50:18.139Z,76.90
2022-10-30T05:55:58.948Z,77.00
2022-10-30T06:01:31.090Z,76.90
2022-10-30T06:07:02.253Z,76.00
2022-10-30T06:12:30.220Z,75.90
2022-10-30T06:18:12.768Z,76.00
2022-10-30T06:23:44.013Z,76.00
2022-10-30T06:29:26.905Z,76.10
2022-10-30T06:34:54.801Z,76.20
2022-10-30T06:40:23.712Z,76.10
2022-10-30T06:46:25.728Z,76.00
2022-10-30T06:51:57.168Z,76.00
2022-10-30T06:57:26.576Z,76.00
2022-10-30T07:03:08.889Z,76.10
2022-10-30T07:08:36.776Z,76.20
2022-10-30T07:14:04.809Z,76.30
2022-10-30T07:19:46.081Z,76.20
2022-10-30T07:25:15.521Z,76.30
2022-10-30T07:31:12.227Z,76.30
2022-10-30T07:36:51.888Z,76.30
2022-10-30T07:42:29.720Z,76.30
2022-10-30T07:48:15.965Z,76.40
2022-10-30T07:53:55.168Z,76.40
2022-10-30T07:59:26.186Z,76.30
2022-10-30T08:05:13.986Z,76.30
2022-10-30T08:11:02.180Z,76.30
2022-10-30T08:16:31.241Z,76.10
2022-10-30T08:22:00.263Z,76.00
2022-10-30T08:27:28.481Z,76.00
2022-10-30T08:33:06.000Z,76.00
2022-10-30T08:39:12.142Z,75.90
2022-10-30T08:44:51.240Z,75.70
2022-10-30T08:50:19.174Z,75.70
2022-10-30T08:55:47.990Z,75.50
2022-10-30T09:01:27.043Z,75.40
2022-10-30T09:07:24.583Z,75.10
2022-10-30T09:13:12.917Z,74.80
2022-10-30T09:18:42.436Z,74.40
2022-10-30T09:24:10.637Z,74.00
2022-10-30T09:29:38.594Z,73.80
2022-10-30T09:35:18.305Z,73.30
2022-10-30T09:41:22.415Z,72.90
2022-10-30T09:47:23.033Z,72.50
2022-10-30T09:53:38.736Z,72.00
2022-10-30T09:59:58.677Z,71.80
2022-10-30T10:05:52.659Z,71.40
2022-10-30T10:11:47.705Z,71.10
2022-10-30T10:17:35.103Z,70.60
2022-10-30T10:23:53.357Z,69.90
2022-10-30T10:29:41.072Z,69.40
2022-10-30T10:35:54.913Z,68.80
2022-10-30T10:41:28.293Z,68.60
2022-10-30T10:47:20.616Z,68.20
2022-10-30T10:53:02.663Z,67.90
2022-10-30T10:58:43.944Z,67.50
2022-10-30T11:04:40.278Z,67.00
2022-10-30T11:10:15.202Z,66.80
2022-10-30T11:16:10.766Z,66.30
2022-10-30T11:21:52.579Z,66.10
2022-10-30T11:27:25.364Z,65.80
2022-10-30T11:32:55.449Z,65.40
2022-10-30T11:38:27.566Z,64.70
2022-10-30T11:43:55.823Z,64.60
2022-10-30T11:49:31.912Z,64.20
2022-10-30T11:55:20.867Z,64.10
2022-10-30T12:01:15.108Z,63.50
2022-10-30T12:06:43.191Z,63.40
2022-10-30T12:12:31.727Z,63.20
2022-10-30T12:18:03.613Z,62.80
2022-10-30T12:23:32.573Z,62.40
2022-10-30T12:29:05.548Z,61.90
2022-10-30T12:35:03.368Z,62.10
2022-10-30T12:40:38.118Z,62.10
2022-10-30T12:46:34.513Z,61.80
2022-10-30T12:52:20.328Z,61.50
2022-10-30T12:58:30.195Z,61.30
2022-10-30T13:04:22.516Z,60.80
2022-10-30T13:10:23.755Z,60.40
2022-10-30T13:15:56.046Z,59.40
2022-10-30T13:22:01.591Z,58.80
2022-10-30T13:27:52.946Z,58.10
2022-10-30T13:33:50.382Z,56.80
2022-10-30T13:39:45.779Z,55.00
2022-10-30T13:45:50.280Z,52.30
2022-10-30T13:51:35.888Z,50.60
2022-10-30T13:57:27.380Z,50.30
2022-10-30T14:03:12.496Z,50.40
2022-10-30T14:09:08.927Z,50.40
2022-10-30T14:14:48.023Z,51.20
2022-10-30T14:20:16.179Z,50.10
2022-10-30T14:25:44.169Z,48.80
2022-10-30T14:31:18.750Z,49.50
2022-10-30T14:36:46.512Z,50.50
2022-10-30T14:42:26.247Z,51.10
2022-10-30T14:48:08.203Z,51.20
2022-10-30T14:54:30.982Z,51.70
2022-10-30T15:00:41.893Z,52.90
2022-10-30T15:06:32.515Z,53.40
2022-10-30T15:12:22.645Z,53.70
2022-10-30T15:17:55.648Z,53.90
2022-10-30T15:23:31.842Z,54.30
2022-10-30T15:29:00.308Z,54.60
2022-10-30T15:34:33.665Z,55.10
2022-10-30T15:40:21.381Z,55.80
2022-10-30T15:45:50.563Z,56.20
2022-10-30T15:51:23.418Z,56.80
2022-10-30T16:03:03.874Z,57.70
2022-10-30T16:08:31.752Z,58.00
2022-10-30T16:14:08.312Z,58.50
2022-10-30T16:19:45.249Z,58.90
2022-10-30T16:25:16.038Z,59.30
2022-10-30T16:30:44.060Z,59.90
2022-10-30T16:36:17.589Z,59.90
2022-10-30T16:41:47.102Z,60.30
2022-10-30T16:47:17.990Z,60.60
2022-10-30T16:52:46.213Z,60.90
2022-10-30T16:58:16.950Z,61.30
2022-10-30T17:03:45.169Z,61.60
2022-10-30T17:09:22.739Z,61.90
2022-10-30T17:15:13.261Z,62.30
2022-10-30T17:20:41.188Z,62.70
2022-10-30T17:26:10.830Z,63.00
2022-10-30T17:31:38.607Z,63.40
2022-10-30T17:37:06.744Z,63.60
2022-10-30T17:42:34.786Z,63.90
2022-10-30T17:48:02.991Z,64.30
2022-10-30T17:53:30.968Z,64.50
2022-10-30T17:58:58.890Z,64.90
2022-10-30T18:04:26.974Z,65.10
2022-10-30T18:09:54.781Z,65.40
2022-10-30T18:15:36.663Z,65.70
2022-10-30T18:21:04.596Z,66.00
2022-10-30T18:26:36.323Z,66.30
2022-10-30T18:32:09.808Z,66.50
2022-10-30T18:37:37.818Z,66.80
2022-10-30T18:43:05.631Z,66.90
2022-10-30T18:48:33.486Z,67.20
2022-10-30T18:54:01.388Z,68.20
2022-10-30T18:59:29.239Z,67.90
2022-10-30T19:04:57.252Z,68.00
2022-10-30T19:10:26.441Z,68.20
2022-10-30T19:16:00.462Z,68.60
2022-10-30T19:21:28.830Z,68.90
2022-10-30T19:26:57.034Z,69.10
2022-10-30T19:32:25.407Z,69.20
2022-10-30T19:37:57.464Z,69.40
2022-10-30T19:43:26.492Z,69.70
2022-10-30T19:48:58.921Z,69.90
2022-10-30T19:54:28.211Z,70.00
2022-10-30T19:59:56.470Z,70.20
2022-10-30T20:05:35.724Z,70.50
2022-10-30T20:11:04.489Z,70.60
2022-10-30T20:16:32.345Z,70.60
2022-10-30T20:22:00.337Z,70.80
2022-10-30T20:27:28.561Z,71.10
2022-10-30T20:32:57.215Z,71.20
2022-10-30T20:38:31.872Z,71.40
2022-10-30T20:43:59.974Z,71.60
2022-10-30T20:49:27.829Z,71.70
2022-10-30T20:54:55.829Z,71.90
2022-10-30T21:00:24.045Z,72.10
2022-10-30T21:06:00.860Z,72.40
2022-10-30T21:11:28.666Z,72.50
2022-10-30T21:16:56.443Z,72.70
2022-10-30T21:22:24.729Z,72.90
2022-10-30T21:27:53.134Z,72.90
2022-10-30T21:33:21.197Z,73.00
2022-10-30T21:38:49.815Z,73.10
2022-10-30T21:44:18.299Z,73.40
2022-10-30T21:49:46.206Z,73.30
2022-10-30T21:55:14.012Z,73.50
2022-10-30T22:00:42.214Z,73.60
2022-10-30T22:06:13.382Z,73.60
2022-10-30T22:11:41.253Z,73.80
2022-10-30T22:17:13.308Z,73.80
2022-10-30T22:22:41.246Z,74.00
2022-10-30T22:28:09.343Z,74.00
2022-10-30T22:33:41.484Z,74.20
2022-10-30T22:39:13.542Z,74.30
2022-10-30T22:44:41.305Z,74.40
2022-10-30T22:50:09.603Z,74.60
2022-10-30T22:55:37.613Z,74.60
2022-10-30T23:01:16.887Z,74.70
2022-10-30T23:06:45.191Z,75.00
2022-10-30T23:12:13.032Z,75.00
2022-10-30T23:17:40.949Z,75.10
2022-10-30T23:23:09.046Z,75.20
2022-10-30T23:28:37.246Z,75.40
2022-10-30T23:34:09.680Z,75.30
2022-10-30T23:39:37.472Z,75.40
2022-10-30T23:45:06.054Z,75.50
2022-10-30T23:50:36.075Z,75.60
2022-10-30T23:56:06.148Z,75.70
